createdAt,value
2022-12-04T00:03:57.143Z,13.52
2022-12-04T00:08:59.031Z,13.45
2022-12-04T00:14:06.482Z,13.43
2022-12-04T00:19:09.181Z,13.68
2022-12-04T00:24:11.036Z,13.43
2022-12-04T00:29:13.601Z,12.32
2022-12-04T00:34:15.456Z,12.35
2022-12-04T00:39:17.313Z,12.50
2022-12-04T00:44:19.134Z,12.75
2022-12-04T00:49:20.893Z,12.65
2022-12-04T00:54:22.643Z,12.45
2022-12-04T00:59:24.604Z,12.63
2022-12-04T01:04:26.356Z,12.50
2022-12-04T01:09:28.386Z,12.50
2022-12-04T01:14:30.259Z,12.65
2022-12-04T01:19:32.045Z,12.57
2022-12-04T01:24:33.821Z,12.35
2022-12-04T01:29:35.607Z,12.27
2022-12-04T01:34:37.418Z,11.73
2022-12-04T01:39:39.182Z,11.60
2022-12-04T01:45:04.707Z,11.98
2022-12-04T01:50:07.062Z,12.18
2022-12-04T01:55:09.498Z,12.52
2022-12-04T02:00:14.968Z,16.08
2022-12-04T02:05:19.271Z,15.75
2022-12-04T02:10:24.724Z,17.23
2022-12-04T02:15:53.985Z,16.70
2022-12-04T02:21:01.659Z,18.55
2022-12-04T02:26:26.878Z,19.38
2022-12-04T02:31:35.382Z,18.05
2022-12-04T02:36:49.171Z,18.75
2022-12-04T02:42:05.000Z,20.17
2022-12-04T02:47:12.370Z,20.67
2022-12-04T02:52:21.171Z,21.27
2022-12-04T02:57:29.412Z,22.83
2022-12-04T03:02:41.098Z,24.40
2022-12-04T03:07:52.715Z,21.90
2022-12-04T03:13:05.382Z,23.88
2022-12-04T03:18:27.202Z,22.75
2022-12-04T03:23:35.349Z,24.15
2022-12-04T03:28:52.806Z,25.35
2022-12-04T03:33:58.337Z,24.65
2022-12-04T03:39:26.703Z,26.20
2022-12-04T03:44:38.952Z,26.48
2022-12-04T03:49:56.018Z,26.73
2022-12-04T03:55:04.663Z,28.45
2022-12-04T04:00:18.515Z,26.23
2022-12-04T04:05:22.449Z,23.65
2022-12-04T04:10:26.909Z,27.42
2022-12-04T04:15:47.377Z,25.90
2022-12-04T04:21:13.266Z,26.80
2022-12-04T04:26:16.528Z,27.70
2022-12-04T04:31:42.171Z,28.33
2022-12-04T04:36:56.048Z,26.73
2022-12-04T04:42:12.786Z,26.63
2022-12-04T04:47:28.003Z,29.65
2022-12-04T04:52:31.367Z,32.78
2022-12-04T04:57:35.928Z,29.40
2022-12-04T05:02:38.348Z,30.58
2022-12-04T05:07:40.261Z,31.63
2022-12-04T05:12:42.257Z,31.48
2022-12-04T05:17:44.002Z,29.55
2022-12-04T05:22:45.844Z,30.65
2022-12-04T05:27:47.636Z,28.73
2022-12-04T05:32:49.406Z,31.92
2022-12-04T05:37:51.218Z,31.40
2022-12-04T05:42:52.982Z,33.05
2022-12-04T05:47:54.853Z,32.05
2022-12-04T05:52:56.611Z,33.78
2022-12-04T05:57:58.444Z,33.28
2022-12-04T06:03:00.295Z,34.22
2022-12-04T06:08:02.235Z,34.60
2022-12-04T06:13:06.574Z,35.13
2022-12-04T06:18:08.449Z,35.03
2022-12-04T06:23:10.264Z,38.65
2022-12-04T06:28:12.023Z,36.58
2022-12-04T06:33:13.801Z,36.43
2022-12-04T06:38:15.559Z,35.42
2022-12-04T06:43:17.320Z,41.60
2022-12-04T06:48:19.095Z,40.50
2022-12-04T06:53:20.884Z,39.92
2022-12-04T06:58:22.654Z,39.67
2022-12-04T07:03:25.862Z,40.85
2022-12-04T07:08:27.630Z,40.72
2022-12-04T07:13:29.398Z,40.15
2022-12-04T07:18:32.468Z,39.58
2022-12-04T07:23:34.853Z,40.03
2022-12-04T07:28:37.196Z,40.78
2022-12-04T07:33:39.750Z,38.30
2022-12-04T07:38:42.561Z,34.25
2022-12-04T07:43:44.692Z,36.92
2022-12-04T07:48:46.541Z,35.53
2022-12-04T07:53:50.396Z,35.95
2022-12-04T07:58:52.197Z,32.65
2022-12-04T08:03:57.200Z,35.80
2022-12-04T08:08:59.517Z,34.65
2022-12-04T08:14:08.784Z,34.17
2022-12-04T08:19:10.582Z,35.70
2022-12-04T08:24:12.391Z,33.83
2022-12-04T08:29:14.183Z,37.10
2022-12-04T08:34:16.571Z,38.92
2022-12-04T08:39:18.377Z,36.35
2022-12-04T08:44:20.194Z,36.72
2022-12-04T08:49:21.951Z,36.92
2022-12-04T08:54:23.790Z,35.45
2022-12-04T08:59:25.595Z,36.40
2022-12-04T09:04:27.412Z,37.17
2022-12-04T09:09:29.335Z,37.00
2022-12-04T09:14:31.087Z,36.28
2022-12-04T09:19:33.327Z,36.10
2022-12-04T09:24:35.092Z,38.78
2022-12-04T09:29:36.881Z,42.30
2022-12-04T09:34:38.740Z,40.78
2022-12-04T09:39:40.764Z,41.00
2022-12-04T09:45:07.742Z,41.53
2022-12-04T09:50:20.758Z,40.17
2022-12-04T09:55:39.985Z,40.10
2022-12-04T10:00:46.053Z,38.45
2022-12-04T10:06:21.800Z,39.30
2022-12-04T10:11:47.339Z,39.55
2022-12-04T10:17:19.365Z,40.35
2022-12-04T10:22:28.712Z,38.40
2022-12-04T10:27:44.817Z,39.25
2022-12-04T10:32:48.368Z,39.97
2022-12-04T10:37:58.471Z,41.58
2022-12-04T10:43:14.957Z,40.88
2022-12-04T10:48:32.962Z,40.63
2022-12-04T10:53:37.105Z,41.88
2022-12-04T10:58:38.950Z,38.92
2022-12-04T11:03:43.529Z,39.13
2022-12-04T11:08:50.445Z,41.53
2022-12-04T11:14:15.669Z,51.65
2022-12-04T11:19:22.261Z,41.30
2022-12-04T11:24:30.446Z,40.47
2022-12-04T11:29:45.812Z,41.95
2022-12-04T11:34:48.928Z,42.28
2022-12-04T11:39:52.017Z,43.20
2022-12-04T11:44:56.679Z,43.58
2022-12-04T11:50:13.209Z,44.70
2022-12-04T11:55:28.477Z,44.33
2022-12-04T12:00:39.058Z,42.28
2022-12-04T12:06:18.649Z,43.55
2022-12-04T12:11:34.581Z,43.55
2022-12-04T12:17:00.702Z,45.65
2022-12-04T12:22:26.156Z,45.75
2022-12-04T12:27:34.018Z,42.25
2022-12-04T12:32:59.984Z,41.75
2022-12-04T12:38:07.300Z,44.88
2022-12-04T12:43:30.258Z,44.33
2022-12-04T12:48:44.249Z,44.83
2022-12-04T12:53:51.242Z,43.75
2022-12-04T12:59:00.696Z,42.92
2022-12-04T13:04:25.312Z,45.58
2022-12-04T13:09:35.218Z,45.33
2022-12-04T13:14:37.331Z,44.10
2022-12-04T13:19:46.297Z,44.13
2022-12-04T13:24:59.504Z,47.67
2022-12-04T13:30:10.338Z,46.80
2022-12-04T13:35:27.359Z,48.72
2022-12-04T13:40:34.335Z,47.80
2022-12-04T13:45:36.366Z,47.58
2022-12-04T13:50:40.650Z,48.33
2022-12-04T13:55:42.709Z,47.92
2022-12-04T14:00:44.779Z,45.60
2022-12-04T14:05:48.608Z,44.72
2022-12-04T14:11:03.863Z,46.78
2022-12-04T14:16:26.976Z,47.00
2022-12-04T14:21:45.698Z,46.63
2022-12-04T14:27:10.802Z,45.97
2022-12-04T14:32:18.856Z,46.72
2022-12-04T14:37:27.904Z,47.35
2022-12-04T14:42:38.136Z,51.33
2022-12-04T14:47:57.749Z,48.60
2022-12-04T14:53:02.580Z,48.17
2022-12-04T14:58:31.580Z,49.95
2022-12-04T15:03:43.410Z,48.72
2022-12-04T15:08:51.169Z,49.10
2022-12-04T15:13:53.157Z,47.10
2022-12-04T15:18:57.349Z,47.65
2022-12-04T15:23:59.200Z,49.95
2022-12-04T15:29:05.058Z,54.22
2022-12-04T15:34:16.562Z,65.30
2022-12-04T15:39:28.007Z,50.88
2022-12-04T15:44:31.922Z,52.08
2022-12-04T15:49:33.932Z,49.78
2022-12-04T15:54:36.749Z,53.13
2022-12-04T15:59:38.543Z,51.50
2022-12-04T16:04:45.567Z,53.00
2022-12-04T16:10:01.303Z,71.50
2022-12-04T16:15:07.695Z,51.53
2022-12-04T16:20:11.013Z,51.30
2022-12-04T16:25:13.636Z,51.97
2022-12-04T16:30:15.625Z,52.35
2022-12-04T16:35:17.757Z,48.42
2022-12-04T16:40:19.668Z,50.83
2022-12-04T16:45:23.461Z,50.40
2022-12-04T16:50:26.412Z,52.40
2022-12-04T16:55:36.979Z,51.70
2022-12-04T17:00:39.290Z,54.15
2022-12-04T17:05:41.047Z,50.55
2022-12-04T17:10:42.900Z,52.50
2022-12-04T17:15:44.839Z,49.88
2022-12-04T17:20:46.642Z,54.70
2022-12-04T17:25:48.551Z,52.15
2022-12-04T17:30:50.323Z,53.25
2022-12-04T17:35:54.109Z,51.72
2022-12-04T17:41:01.238Z,52.13
2022-12-04T17:46:09.328Z,51.55
2022-12-04T17:51:18.156Z,48.10
2022-12-04T17:56:22.872Z,49.25
2022-12-04T18:01:27.680Z,47.33
2022-12-04T18:06:32.266Z,44.40
2022-12-04T18:11:36.726Z,40.60
2022-12-04T18:16:42.332Z,42.92
2022-12-04T18:21:44.199Z,40.30
2022-12-04T18:26:48.244Z,40.08
2022-12-04T18:31:51.244Z,38.40
2022-12-04T18:36:53.123Z,38.60
2022-12-04T18:41:57.015Z,36.53
2022-12-04T18:46:58.957Z,35.03
2022-12-04T18:52:00.772Z,34.15
2022-12-04T18:57:03.066Z,31.65
2022-12-04T19:02:05.068Z,30.55
2022-12-04T19:07:06.904Z,30.65
2022-12-04T19:12:08.736Z,28.25
2022-12-04T19:17:11.430Z,26.73
2022-12-04T19:22:13.450Z,26.42
2022-12-04T19:27:15.355Z,29.58
2022-12-04T19:32:17.170Z,28.55
2022-12-04T19:37:18.985Z,30.35
2022-12-04T19:42:20.739Z,32.08
2022-12-04T19:47:22.856Z,34.08
2022-12-04T19:52:24.706Z,31.77
2022-12-04T19:57:26.553Z,29.83
2022-12-04T20:02:28.376Z,31.50
2022-12-04T20:07:30.246Z,30.73
2022-12-04T20:12:32.175Z,28.08
2022-12-04T20:17:34.073Z,28.50
2022-12-04T20:22:36.902Z,27.77
2022-12-04T20:27:38.689Z,28.25
2022-12-04T20:32:40.465Z,27.83
2022-12-04T20:37:43.269Z,29.85
2022-12-04T20:42:45.423Z,27.92
2022-12-04T20:47:47.244Z,29.83
2022-12-04T20:52:49.027Z,28.50
2022-12-04T20:57:50.814Z,27.02
2022-12-04T21:02:52.704Z,28.77
2022-12-04T21:07:54.665Z,28.83
2022-12-04T21:13:14.837Z,27.67
2022-12-04T21:18:16.598Z,25.38
2022-12-04T21:23:18.436Z,25.80
2022-12-04T21:28:20.219Z,24.40
2022-12-04T21:33:21.984Z,24.42
2022-12-04T21:38:23.716Z,26.08
2022-12-04T21:43:26.923Z,28.67
2022-12-04T21:48:30.717Z,28.77
2022-12-04T21:53:32.543Z,28.55
2022-12-04T21:58:34.838Z,29.30
2022-12-04T22:03:36.723Z,30.20
2022-12-04T22:08:40.832Z,32.53
2022-12-04T22:13:42.930Z,30.40
2022-12-04T22:18:45.631Z,34.30
2022-12-04T22:23:47.439Z,33.15
2022-12-04T22:28:50.789Z,31.30
2022-12-04T22:33:54.963Z,32.72
2022-12-04T22:39:12.402Z,31.92
2022-12-04T22:44:14.369Z,32.63
2022-12-04T22:49:16.350Z,35.67
2022-12-04T22:54:18.288Z,32.15
2022-12-04T22:59:20.069Z,33.03
2022-12-04T23:04:21.815Z,35.42
2022-12-04T23:09:23.749Z,34.65
2022-12-04T23:14:27.094Z,34.15
2022-12-04T23:19:31.296Z,31.90
2022-12-04T23:24:33.433Z,31.08
2022-12-04T23:34:57.245Z,32.95
2022-12-04T23:39:59.260Z,30.88
2022-12-04T23:45:01.158Z,31.80
2022-12-04T23:50:03.991Z,31.58
2022-12-04T23:55:06.353Z,32.53
